createdAt,value
2023-04-11T00:01:51.799Z,0.70
2023-04-11T00:04:21.159Z,0.20
2023-04-11T00:06:48.750Z,0.47
2023-04-11T00:09:16.842Z,0.20
2023-04-11T00:11:44.085Z,0.20
2023-04-11T00:14:12.631Z,0.47
2023-04-11T00:16:39.883Z,0.38
2023-04-11T00:19:09.498Z,0.65
2023-04-11T00:21:40.191Z,0.20
2023-04-11T00:24:08.360Z,0.30
2023-04-11T00:26:35.825Z,0.90
2023-04-11T00:29:02.768Z,1.77
2023-04-11T00:31:29.740Z,0.20
2023-04-11T00:33:56.699Z,0.30
2023-04-11T00:36:23.771Z,0.60
2023-04-11T00:38:50.774Z,0.68
2023-04-11T00:41:17.744Z,0.43
2023-04-11T00:43:44.666Z,1.98
2023-04-11T00:46:11.893Z,0.40
2023-04-11T00:48:38.938Z,1.13
2023-04-11T00:51:06.092Z,0.43
2023-04-11T00:53:33.056Z,0.90
2023-04-11T00:56:00.671Z,0.60
2023-04-11T00:58:28.568Z,1.27
2023-04-11T01:00:55.829Z,0.77
2023-04-11T01:03:23.166Z,0.60
2023-04-11T01:05:55.020Z,0.82
2023-04-11T01:08:22.592Z,2.17
2023-04-11T01:10:49.818Z,0.68
2023-04-11T01:13:17.410Z,0.88
2023-04-11T01:15:44.558Z,1.17
2023-04-11T01:18:11.837Z,1.08
2023-04-11T01:20:38.950Z,2.20
2023-04-11T01:23:08.783Z,0.30
2023-04-11T01:25:35.833Z,1.73
2023-04-11T01:28:03.547Z,2.60
2023-04-11T01:30:30.695Z,0.70
2023-04-11T01:32:57.970Z,0.98
2023-04-11T01:35:25.175Z,2.25
2023-04-11T01:37:52.370Z,1.13
2023-04-11T01:40:21.456Z,0.73
2023-04-11T01:42:49.430Z,2.00
2023-04-11T01:45:16.762Z,1.15
2023-04-11T01:47:44.523Z,0.65
2023-04-11T01:50:12.267Z,2.05
2023-04-11T01:52:39.281Z,0.55
2023-04-11T01:55:06.680Z,0.90
2023-04-11T01:57:33.600Z,0.75
2023-04-11T02:00:01.340Z,1.42
2023-04-11T02:02:28.503Z,3.08
2023-04-11T02:04:55.633Z,5.30
2023-04-11T02:07:22.548Z,1.63
2023-04-11T02:09:49.666Z,2.17
2023-04-11T02:12:17.172Z,2.47
2023-04-11T02:14:45.608Z,1.25
2023-04-11T02:17:13.409Z,1.70
2023-04-11T02:19:45.531Z,1.58
2023-04-11T02:22:14.105Z,0.98
2023-04-11T02:24:41.497Z,1.75
2023-04-11T02:27:09.197Z,0.38
2023-04-11T02:29:36.422Z,0.40
2023-04-11T02:32:03.695Z,1.60
2023-04-11T02:34:31.200Z,0.63
2023-04-11T02:36:58.110Z,1.40
2023-04-11T02:39:25.171Z,2.67
2023-04-11T02:41:52.276Z,0.50
2023-04-11T02:44:19.815Z,0.52
2023-04-11T02:46:46.754Z,0.40
2023-04-11T02:49:14.045Z,0.80
2023-04-11T02:51:41.657Z,0.70
2023-04-11T02:54:08.613Z,1.00
2023-04-11T02:56:39.860Z,2.78
2023-04-11T02:59:07.664Z,0.40
2023-04-11T03:01:34.897Z,1.90
2023-04-11T03:04:01.932Z,1.05
2023-04-11T03:06:29.765Z,0.52
2023-04-11T03:08:56.970Z,2.17
2023-04-11T03:11:25.459Z,1.55
2023-04-11T03:13:52.399Z,1.15
2023-04-11T03:16:20.045Z,3.10
2023-04-11T03:18:47.114Z,1.95
2023-04-11T03:21:14.200Z,0.68
2023-04-11T03:23:41.192Z,4.13
2023-04-11T03:26:08.305Z,1.35
2023-04-11T03:28:35.408Z,1.38
2023-04-11T03:31:02.484Z,2.38
2023-04-11T03:33:29.547Z,1.98
2023-04-11T03:35:56.596Z,2.38
2023-04-11T03:38:23.574Z,1.55
2023-04-11T03:40:50.713Z,1.67
2023-04-11T03:43:19.223Z,2.22
2023-04-11T03:45:46.570Z,1.88
2023-04-11T03:48:13.586Z,2.63
2023-04-11T03:50:40.644Z,1.55
2023-04-11T03:53:07.931Z,1.05
2023-04-11T03:55:34.990Z,1.60
2023-04-11T03:58:02.440Z,1.20
2023-04-11T04:00:29.375Z,2.85
2023-04-11T04:02:56.504Z,1.02
2023-04-11T04:05:23.868Z,0.98
2023-04-11T04:07:50.951Z,3.95
2023-04-11T04:10:17.909Z,4.00
2023-04-11T04:12:44.847Z,2.35
2023-04-11T04:15:14.803Z,6.68
2023-04-11T04:17:44.789Z,3.60
2023-04-11T04:20:13.408Z,4.05
2023-04-11T04:22:40.371Z,0.40
2023-04-11T04:25:09.780Z,0.95
2023-04-11T04:27:36.750Z,1.27
2023-04-11T04:30:04.792Z,0.40
2023-04-11T04:32:32.072Z,0.60
2023-04-11T04:34:59.196Z,0.65
2023-04-11T04:37:27.395Z,1.05
2023-04-11T04:39:56.223Z,1.17
2023-04-11T04:42:25.094Z,2.70
2023-04-11T04:44:53.600Z,2.67
2023-04-11T04:47:25.309Z,1.92
2023-04-11T04:49:56.610Z,1.55
2023-04-11T04:52:27.580Z,4.25
2023-04-11T04:54:58.544Z,0.70
2023-04-11T04:57:27.245Z,3.63
2023-04-11T04:59:54.846Z,1.50
2023-04-11T05:02:22.144Z,2.17
2023-04-11T05:04:50.480Z,1.50
2023-04-11T05:07:18.700Z,1.55
2023-04-11T05:09:46.056Z,0.70
2023-04-11T05:12:13.962Z,2.40
2023-04-11T05:14:41.107Z,1.20
2023-04-11T05:17:08.147Z,2.17
2023-04-11T05:19:35.098Z,2.92
2023-04-11T05:22:01.987Z,1.95
2023-04-11T05:24:29.141Z,2.00
2023-04-11T05:26:56.756Z,3.10
2023-04-11T05:29:23.682Z,1.08
2023-04-11T05:31:50.911Z,4.93
2023-04-11T05:34:17.825Z,1.65
2023-04-11T05:36:46.531Z,1.85
2023-04-11T05:39:13.641Z,2.10
2023-04-11T05:41:40.592Z,1.25
2023-04-11T05:44:07.630Z,0.70
2023-04-11T05:46:37.017Z,0.68
2023-04-11T05:49:04.077Z,0.75
2023-04-11T05:51:31.053Z,2.40
2023-04-11T05:53:58.559Z,1.88
2023-04-11T05:56:26.028Z,0.70
2023-04-11T05:58:53.120Z,1.52
2023-04-11T06:01:20.113Z,1.48
2023-04-11T06:03:47.440Z,1.30
2023-04-11T06:06:14.676Z,2.05
2023-04-11T06:08:41.708Z,1.73
2023-04-11T06:11:09.023Z,1.70
2023-04-11T06:13:36.410Z,2.20
2023-04-11T06:16:03.548Z,2.08
2023-04-11T06:18:30.503Z,1.90
2023-04-11T06:20:57.434Z,2.83
2023-04-11T06:23:24.412Z,0.65
2023-04-11T06:25:51.370Z,1.70
2023-04-11T06:28:18.330Z,2.22
2023-04-11T06:30:45.302Z,3.05
2023-04-11T06:33:12.349Z,1.33
2023-04-11T06:35:39.344Z,5.10
2023-04-11T06:38:06.331Z,2.00
2023-04-11T06:40:33.476Z,5.97
2023-04-11T06:43:01.874Z,3.90
2023-04-11T06:45:29.557Z,1.90
2023-04-11T06:47:56.499Z,1.35
2023-04-11T06:50:24.180Z,2.67
2023-04-11T06:52:51.444Z,2.25
2023-04-11T06:55:18.828Z,1.67
2023-04-11T06:57:45.969Z,1.55
2023-04-11T07:00:13.861Z,1.77
2023-04-11T07:02:41.146Z,0.70
2023-04-11T07:05:11.255Z,1.17
2023-04-11T07:07:38.653Z,4.38
2023-04-11T07:10:06.549Z,5.43
2023-04-11T07:12:33.472Z,1.15
2023-04-11T07:15:00.784Z,2.70
2023-04-11T07:17:27.867Z,2.55
2023-04-11T07:19:54.855Z,1.17
2023-04-11T07:22:21.904Z,3.50
2023-04-11T07:24:52.446Z,1.40
2023-04-11T07:27:19.765Z,4.15
2023-04-11T07:29:46.945Z,0.68
2023-04-11T07:32:14.052Z,2.60
2023-04-11T07:34:41.240Z,3.40
2023-04-11T07:37:08.214Z,1.52
2023-04-11T07:39:35.227Z,1.75
2023-04-11T07:42:02.820Z,0.80
2023-04-11T07:44:29.817Z,0.95
2023-04-11T07:46:56.867Z,2.50
2023-04-11T07:49:24.032Z,1.92
2023-04-11T07:51:50.967Z,4.07
2023-04-11T07:54:17.959Z,2.30
2023-04-11T07:56:45.033Z,3.28
2023-04-11T07:59:15.989Z,2.08
2023-04-11T08:01:43.173Z,0.88
2023-04-11T08:04:10.233Z,2.10
2023-04-11T08:06:37.456Z,2.05
2023-04-11T08:09:05.819Z,2.05
2023-04-11T08:11:33.041Z,2.25
2023-04-11T08:14:00.128Z,1.13
2023-04-11T08:16:27.086Z,1.40
2023-04-11T08:18:54.012Z,1.85
2023-04-11T08:21:23.727Z,2.17
2023-04-11T08:23:53.613Z,1.15
2023-04-11T08:26:21.393Z,0.85
2023-04-11T08:28:48.584Z,3.03
2023-04-11T08:31:15.640Z,1.92
2023-04-11T08:33:42.887Z,2.28
2023-04-11T08:36:10.985Z,1.63
2023-04-11T08:38:39.445Z,1.58
2023-04-11T08:41:06.807Z,1.27
2023-04-11T08:43:39.093Z,2.17
2023-04-11T08:46:12.952Z,1.33
2023-04-11T08:48:39.977Z,1.20
2023-04-11T08:51:07.647Z,1.80
2023-04-11T08:53:38.767Z,1.45
2023-04-11T08:56:06.556Z,0.40
2023-04-11T08:58:33.485Z,3.75
2023-04-11T09:01:34.320Z,2.03
2023-04-11T09:04:07.539Z,1.30
2023-04-11T09:06:35.025Z,2.20
2023-04-11T09:09:08.116Z,1.35
2023-04-11T09:11:54.757Z,0.52
2023-04-11T09:14:25.711Z,1.48
2023-04-11T09:16:57.797Z,1.98
2023-04-11T09:19:29.858Z,1.17
2023-04-11T09:22:02.362Z,1.48
2023-04-11T09:24:32.028Z,1.05
2023-04-11T09:27:10.067Z,2.47
2023-04-11T09:29:40.519Z,0.90
2023-04-11T09:32:08.130Z,3.05
2023-04-11T09:34:38.022Z,2.33
2023-04-11T09:37:05.464Z,0.88
2023-04-11T09:39:32.734Z,2.70
2023-04-11T09:41:59.790Z,0.77
2023-04-11T09:44:37.737Z,0.32
2023-04-11T09:47:05.018Z,0.40
2023-04-11T09:49:34.262Z,0.70
2023-04-11T09:52:02.076Z,0.13
2023-04-11T09:54:30.112Z,0.82
2023-04-11T09:56:58.484Z,0.50
2023-04-11T09:59:27.500Z,0.40
2023-04-11T10:01:55.086Z,2.05
2023-04-11T10:04:22.882Z,1.10
2023-04-11T10:07:09.405Z,0.80
2023-04-11T10:09:40.890Z,0.05
2023-04-11T10:12:07.860Z,0.20
2023-04-11T10:14:37.657Z,0.25
2023-04-11T10:17:20.803Z,1.85
2023-04-11T10:19:51.767Z,0.20
2023-04-11T10:22:43.936Z,0.43
2023-04-11T10:25:21.738Z,3.92
2023-04-11T10:27:50.115Z,0.08
2023-04-11T10:30:17.272Z,1.30
2023-04-11T10:33:12.165Z,0.00
2023-04-11T10:35:59.726Z,0.00
2023-04-11T10:38:44.651Z,0.40
2023-04-11T10:41:25.079Z,0.63
2023-04-11T10:43:52.788Z,0.95
2023-04-11T10:46:27.031Z,0.20
2023-04-11T10:49:05.124Z,0.17
2023-04-11T10:51:33.901Z,0.30
2023-04-11T10:54:01.651Z,1.30
2023-04-11T10:56:47.028Z,0.38
2023-04-11T10:59:32.469Z,0.10
2023-04-11T11:02:03.682Z,0.17
2023-04-11T11:04:37.392Z,0.10
2023-04-11T11:07:06.880Z,0.10
2023-04-11T11:09:35.154Z,0.10
2023-04-11T11:12:10.090Z,1.10
2023-04-11T11:14:38.489Z,0.30
2023-04-11T11:17:05.851Z,0.00
2023-04-11T11:19:33.612Z,0.10
2023-04-11T11:22:03.804Z,0.10
2023-04-11T11:24:31.536Z,0.20
2023-04-11T11:26:59.022Z,0.20
2023-04-11T11:29:39.817Z,0.10
2023-04-11T11:32:06.999Z,0.65
2023-04-11T11:34:35.256Z,0.00
2023-04-11T11:37:06.862Z,0.32
2023-04-11T11:39:35.518Z,0.00
2023-04-11T11:42:03.760Z,0.10
2023-04-11T11:44:31.834Z,0.65
2023-04-11T11:47:07.126Z,0.30
2023-04-11T11:49:48.515Z,0.20
2023-04-11T11:52:40.006Z,0.03
2023-04-11T11:55:27.631Z,0.05
2023-04-11T11:57:54.751Z,0.63
2023-04-11T12:00:26.191Z,0.10
2023-04-11T12:02:55.290Z,0.10
2023-04-11T12:05:30.801Z,0.63
2023-04-11T12:07:59.960Z,0.20
2023-04-11T12:10:41.430Z,0.10
2023-04-11T12:13:13.456Z,0.22
2023-04-11T12:15:42.173Z,0.10
2023-04-11T12:18:09.489Z,0.32
2023-04-11T12:20:36.741Z,0.15
2023-04-11T12:23:03.747Z,0.30
2023-04-11T12:25:31.827Z,0.30
2023-04-11T12:27:59.007Z,0.50
2023-04-11T12:30:27.615Z,0.15
2023-04-11T12:32:56.417Z,0.20
2023-04-11T12:35:23.440Z,0.40
2023-04-11T12:37:51.072Z,0.38
2023-04-11T12:40:18.367Z,0.82
2023-04-11T12:42:56.314Z,1.75
2023-04-11T12:45:24.569Z,0.52
2023-04-11T12:47:51.875Z,0.73
2023-04-11T12:50:19.063Z,0.70
2023-04-11T12:52:46.069Z,1.60
2023-04-11T12:55:13.877Z,0.75
2023-04-11T12:57:41.726Z,0.80
2023-04-11T13:00:11.341Z,1.25
2023-04-11T13:02:43.864Z,0.77
2023-04-11T13:05:15.522Z,0.82
2023-04-11T13:07:45.245Z,1.30
2023-04-11T13:10:13.974Z,1.67
2023-04-11T13:12:44.705Z,1.65
2023-04-11T13:15:13.408Z,1.33
2023-04-11T13:17:40.620Z,1.08
2023-04-11T13:20:10.616Z,1.00
2023-04-11T13:22:38.583Z,1.95
2023-04-11T13:25:07.074Z,1.92
2023-04-11T13:27:34.496Z,1.60
2023-04-11T13:30:01.676Z,1.50
2023-04-11T13:32:28.708Z,0.95
2023-04-11T13:34:55.688Z,2.10
2023-04-11T13:37:22.655Z,1.00
2023-04-11T13:39:49.622Z,0.70
2023-04-11T13:42:16.749Z,1.50
2023-04-11T13:44:43.967Z,0.40
2023-04-11T13:47:10.940Z,0.85
2023-04-11T13:49:37.904Z,1.25
2023-04-11T13:52:04.902Z,1.98
2023-04-11T13:54:32.012Z,1.45
2023-04-11T13:56:59.723Z,1.80
2023-04-11T13:59:27.681Z,0.90
2023-04-11T14:01:54.746Z,1.42
2023-04-11T14:04:22.037Z,1.40
2023-04-11T14:06:49.039Z,2.38
2023-04-11T14:09:16.358Z,0.70
2023-04-11T14:11:43.708Z,0.90
2023-04-11T14:14:10.748Z,0.93
2023-04-11T14:16:37.755Z,0.45
2023-04-11T14:19:04.808Z,0.98
2023-04-11T14:21:31.925Z,1.02
2023-04-11T14:23:59.307Z,0.80
2023-04-11T14:26:27.040Z,1.33
2023-04-11T14:28:54.186Z,1.23
2023-04-11T14:31:21.288Z,1.52
2023-04-11T14:33:48.254Z,0.82
2023-04-11T14:36:15.894Z,0.50
2023-04-11T14:38:42.852Z,0.50
2023-04-11T14:41:10.562Z,1.05
2023-04-11T14:43:37.527Z,0.63
2023-04-11T14:46:04.613Z,1.75
2023-04-11T14:48:31.567Z,1.10
2023-04-11T14:50:58.553Z,0.57
2023-04-11T14:53:25.653Z,1.67
2023-04-11T14:55:52.782Z,1.27
2023-04-11T14:58:20.192Z,0.60
2023-04-11T15:00:47.173Z,0.90
2023-04-11T15:03:14.600Z,0.73
2023-04-11T15:05:41.583Z,1.25
2023-04-11T15:08:09.124Z,1.27
2023-04-11T15:10:36.240Z,0.73
2023-04-11T15:13:03.863Z,0.93
2023-04-11T15:15:31.280Z,0.70
2023-04-11T15:18:28.060Z,1.88
2023-04-11T15:21:03.441Z,2.33
2023-04-11T15:23:31.090Z,1.27
2023-04-11T15:26:02.908Z,0.60
2023-04-11T15:28:36.037Z,0.77
2023-04-11T15:31:04.354Z,0.88
2023-04-11T15:33:32.114Z,2.60
2023-04-11T15:36:00.690Z,0.70
2023-04-11T15:38:28.982Z,1.00
2023-04-11T15:40:59.482Z,1.25
2023-04-11T15:43:26.729Z,1.85
2023-04-11T15:45:54.877Z,1.15
2023-04-11T15:48:22.024Z,3.70
2023-04-11T15:50:49.093Z,0.80
2023-04-11T15:53:16.416Z,1.25
2023-04-11T15:55:44.367Z,3.00
2023-04-11T15:58:11.506Z,1.02
2023-04-11T16:00:40.087Z,1.98
2023-04-11T16:03:08.573Z,1.25
2023-04-11T16:05:41.034Z,1.58
2023-04-11T16:08:08.451Z,1.10
2023-04-11T16:10:35.423Z,1.45
2023-04-11T16:13:03.086Z,1.13
2023-04-11T16:15:30.121Z,1.27
2023-04-11T16:17:57.124Z,2.08
2023-04-11T16:20:24.436Z,1.70
2023-04-11T16:22:51.616Z,2.17
2023-04-11T16:25:21.439Z,1.58
2023-04-11T16:27:49.086Z,1.08
2023-04-11T16:30:16.906Z,4.65
2023-04-11T16:32:44.281Z,2.92
2023-04-11T16:35:11.476Z,2.40
2023-04-11T16:37:38.622Z,4.00
2023-04-11T16:40:11.255Z,4.35
2023-04-11T16:42:39.105Z,3.40
2023-04-11T16:45:07.438Z,3.53
2023-04-11T16:47:34.431Z,4.18
2023-04-11T16:50:01.766Z,2.10
2023-04-11T16:52:29.415Z,3.13
2023-04-11T16:54:56.349Z,4.85
2023-04-11T16:57:24.671Z,4.63
2023-04-11T16:59:51.688Z,2.83
2023-04-11T17:02:18.685Z,4.32
2023-04-11T17:04:45.798Z,3.83
2023-04-11T17:07:13.117Z,5.65
2023-04-11T17:09:41.553Z,2.28
2023-04-11T17:12:08.616Z,4.72
2023-04-11T17:14:36.590Z,7.72
2023-04-11T17:17:04.192Z,2.35
2023-04-11T17:19:31.639Z,3.85
2023-04-11T17:21:58.882Z,4.40
2023-04-11T17:24:25.918Z,5.90
2023-04-11T17:26:53.358Z,3.72
2023-04-11T17:29:20.485Z,3.80
2023-04-11T17:31:47.995Z,6.05
2023-04-11T17:34:15.132Z,6.35
2023-04-11T17:36:43.045Z,5.55
2023-04-11T17:39:17.996Z,7.80
2023-04-11T17:41:45.970Z,7.28
2023-04-11T17:44:13.527Z,6.40
2023-04-11T17:46:41.303Z,6.10
2023-04-11T17:49:08.405Z,7.72
2023-04-11T17:51:38.809Z,3.95
2023-04-11T17:54:09.857Z,4.72
2023-04-11T17:56:37.021Z,3.65
2023-04-11T17:59:03.921Z,3.58
2023-04-11T18:01:32.842Z,4.90
2023-04-11T18:04:02.958Z,4.93
2023-04-11T18:06:34.205Z,5.07
2023-04-11T18:09:02.529Z,5.30
2023-04-11T18:11:29.482Z,5.85
2023-04-11T18:13:56.826Z,6.38
2023-04-11T18:16:24.251Z,7.57
2023-04-11T18:18:51.311Z,5.68
2023-04-11T18:21:19.438Z,7.10
2023-04-11T18:23:46.461Z,8.65
2023-04-11T18:26:13.400Z,9.95
2023-04-11T18:28:40.425Z,5.40
2023-04-11T18:31:07.476Z,4.22
2023-04-11T18:33:35.762Z,8.02
2023-04-11T18:36:03.068Z,4.88
2023-04-11T18:38:30.099Z,5.57
2023-04-11T18:40:57.689Z,6.30
2023-04-11T18:43:26.304Z,6.45
2023-04-11T18:45:53.200Z,3.22
2023-04-11T18:48:20.210Z,6.50
2023-04-11T18:50:48.773Z,5.18
2023-04-11T18:53:16.310Z,6.95
2023-04-11T18:55:43.306Z,7.38
2023-04-11T18:58:12.698Z,6.00
2023-04-11T19:00:42.106Z,9.63
2023-04-11T19:03:15.702Z,8.75
2023-04-11T19:05:44.003Z,7.65
2023-04-11T19:08:11.215Z,6.60
2023-04-11T19:10:38.223Z,7.57
2023-04-11T19:13:06.351Z,7.35
2023-04-11T19:15:33.302Z,7.85
2023-04-11T19:18:00.821Z,8.65
2023-04-11T19:20:28.348Z,6.70
2023-04-11T19:22:55.266Z,5.88
2023-04-11T19:25:22.186Z,8.95
2023-04-11T19:27:49.804Z,8.23
2023-04-11T19:30:17.063Z,12.60
2023-04-11T19:32:46.103Z,10.45
2023-04-11T19:35:13.451Z,10.13
2023-04-11T19:37:41.180Z,8.60
2023-04-11T19:40:11.173Z,10.95
2023-04-11T19:42:39.892Z,17.13
2023-04-11T19:45:08.862Z,9.77
2023-04-11T19:47:36.005Z,8.50
2023-04-11T19:50:03.026Z,7.95
2023-04-11T19:52:29.967Z,9.63
2023-04-11T19:54:57.432Z,8.32
2023-04-11T19:57:27.498Z,11.23
2023-04-11T19:59:54.547Z,9.80
2023-04-11T20:02:21.796Z,11.68
2023-04-11T20:04:49.591Z,10.30
2023-04-11T20:07:16.700Z,15.48
2023-04-11T20:09:43.998Z,11.57
2023-04-11T20:12:11.346Z,8.95
2023-04-11T20:14:38.411Z,13.48
2023-04-11T20:17:06.315Z,12.85
2023-04-11T20:19:33.549Z,14.48
2023-04-11T20:22:03.085Z,14.98
2023-04-11T20:24:30.116Z,14.43
2023-04-11T20:26:57.432Z,14.65
2023-04-11T20:29:32.925Z,16.48
2023-04-11T20:32:00.156Z,13.23
2023-04-11T20:34:27.117Z,14.40
2023-04-11T20:36:54.159Z,16.23
2023-04-11T20:39:21.101Z,16.50
2023-04-11T20:41:49.992Z,17.52
2023-04-11T20:44:23.679Z,13.48
2023-04-11T20:46:51.482Z,14.45
2023-04-11T20:49:18.408Z,18.65
2023-04-11T20:51:46.513Z,12.75
2023-04-11T20:54:13.668Z,18.27
2023-04-11T20:56:41.344Z,17.52
2023-04-11T20:59:09.191Z,18.05
2023-04-11T21:01:36.712Z,17.85
2023-04-11T21:04:04.156Z,20.08
2023-04-11T21:06:31.878Z,15.68
2023-04-11T21:09:00.627Z,26.92
2023-04-11T21:11:27.573Z,24.10
2023-04-11T21:13:54.890Z,20.13
2023-04-11T21:16:22.266Z,20.05
2023-04-11T21:18:49.307Z,23.40
2023-04-11T21:21:16.436Z,20.63
2023-04-11T21:23:43.827Z,21.20
2023-04-11T21:26:11.831Z,21.73
2023-04-11T21:28:38.876Z,19.48
2023-04-11T21:31:06.181Z,27.35
2023-04-11T21:33:33.140Z,20.10
2023-04-11T21:36:00.170Z,16.95
2023-04-11T21:38:27.639Z,26.15
2023-04-11T21:40:56.374Z,24.13
2023-04-11T21:43:23.479Z,18.30
2023-04-11T21:45:50.528Z,20.80
2023-04-11T21:48:17.930Z,20.17
2023-04-11T21:50:45.942Z,23.52
2023-04-11T21:53:14.077Z,16.30
2023-04-11T21:55:47.487Z,13.18
2023-04-11T21:58:28.021Z,9.95
2023-04-11T22:00:56.520Z,20.55
2023-04-11T22:03:24.173Z,14.93
2023-04-11T22:05:52.487Z,9.90
2023-04-11T22:08:22.935Z,17.17
2023-04-11T22:10:50.884Z,16.25
2023-04-11T22:13:20.319Z,13.30
2023-04-11T22:16:08.310Z,7.85
2023-04-11T22:18:54.477Z,10.90
2023-04-11T22:21:21.548Z,11.68
2023-04-11T22:23:54.758Z,12.93
2023-04-11T22:26:29.446Z,13.60
2023-04-11T22:29:03.262Z,12.10
2023-04-11T22:31:35.678Z,14.30
2023-04-11T22:34:03.242Z,6.93
2023-04-11T22:36:36.471Z,5.03
2023-04-11T22:39:05.539Z,6.25
2023-04-11T22:41:39.464Z,10.32
2023-04-11T22:44:08.169Z,7.68
2023-04-11T22:46:39.072Z,12.80
2023-04-11T22:49:14.766Z,14.38
2023-04-11T22:51:42.308Z,7.80
2023-04-11T22:54:13.915Z,11.25
2023-04-11T22:56:44.010Z,9.35
2023-04-11T22:59:19.383Z,5.13
2023-04-11T23:01:47.308Z,12.38
2023-04-11T23:04:15.386Z,9.40
2023-04-11T23:06:42.712Z,10.02
2023-04-11T23:09:10.081Z,6.90
2023-04-11T23:11:37.056Z,6.38
2023-04-11T23:14:04.577Z,11.73
2023-04-11T23:16:31.833Z,12.80
2023-04-11T23:18:59.333Z,9.05
2023-04-11T23:21:26.357Z,10.38
2023-04-11T23:23:53.859Z,9.20
2023-04-11T23:26:22.729Z,15.93
2023-04-11T23:28:49.788Z,9.98
2023-04-11T23:31:17.912Z,7.60
2023-04-11T23:33:45.020Z,12.88
2023-04-11T23:36:12.960Z,10.80
2023-04-11T23:38:40.077Z,7.30
2023-04-11T23:41:07.338Z,9.27
2023-04-11T23:43:34.476Z,8.50
2023-04-11T23:46:03.915Z,9.40
2023-04-11T23:48:30.867Z,1.90
2023-04-11T23:50:58.155Z,4.95
2023-04-11T23:53:25.080Z,4.50
2023-04-11T23:55:52.845Z,8.25
2023-04-11T23:58:19.825Z,8.88
